Time;durP1;ratioP1;P1;durP2;ratioP2;P2;SDS_P1;SDS_P2;PMS_P1;PMS_P2;Temp;Humidity;BMP_temperature;BMP_pressure;BME280_temperature;BME280_humidity;BME280_pressure;Samples;Min_cycle;Max_cycle;Signal;HPM_P1;HPM_P2
2022/02/24 00:00:20;;;;;;;31.20;9.00;;;;;;;3.18;64.27;99705.11;105919;1279;99134;-69
2022/02/24 00:03:08;;;;;;;28.60;8.10;;;;;;;3.14;63.90;99710.83;105905;1279;99249;-69
2022/02/24 00:05:36;;;;;;;30.10;8.30;;;;;;;3.12;64.09;99705.44;105890;1279;113463;-70
2022/02/24 00:08:04;;;;;;;33.10;8.90;;;;;;;3.10;64.14;99710.59;105893;1279;99409;-71
2022/02/24 00:10:32;;;;;;;34.10;9.80;;;;;;;3.09;64.13;99709.92;105841;1279;108116;-69
2022/02/24 00:13:01;;;;;;;29.00;8.30;;;;;;;3.05;64.04;99710.24;105901;1279;96660;-70
2022/02/24 00:15:28;;;;;;;30.80;9.20;;;;;;;3.01;64.13;99705.11;105880;1279;99385;-69
2022/02/24 00:17:57;;;;;;;35.90;10.80;;;;;;;2.98;64.20;99703.46;105857;1279;113139;-70
2022/02/24 00:20:25;;;;;;;34.20;10.50;;;;;;;2.96;64.22;99703.69;105868;1279;99102;-69
2022/02/24 00:22:53;;;;;;;35.60;10.40;;;;;;;2.93;64.01;99705.34;105771;1281;108710;-70
2022/02/24 00:25:20;;;;;;;29.00;9.80;;;;;;;2.90;64.23;99698.95;105810;1279;96783;-69
2022/02/24 00:27:48;;;;;;;27.60;9.20;;;;;;;2.88;64.32;99700.27;105940;1279;99231;-71
2022/02/24 00:30:17;;;;;;;31.30;9.60;;;;;;;2.84;64.00;99697.06;105862;1279;113436;-69
2022/02/24 00:32:45;;;;;;;35.80;10.20;;;;;;;2.80;63.95;99696.63;105934;1279;99234;-69
2022/02/24 00:35:13;;;;;;;34.90;10.20;;;;;;;2.77;63.93;99695.87;105895;1279;108433;-69
2022/02/24 00:37:41;;;;;;;31.50;8.80;;;;;;;2.73;63.84;99698.08;105891;1279;96745;-70
2022/02/24 00:40:12;;;;;;;35.60;9.90;;;;;;;2.69;63.74;99697.67;105953;1279;99207;-67
2022/02/24 00:42:40;;;;;;;30.00;9.40;;;;;;;2.65;64.04;99700.57;105861;1280;112934;-66
2022/02/24 00:45:09;;;;;;;30.10;10.80;;;;;;;2.63;64.02;99701.02;105824;1281;99278;-68
2022/02/24 00:47:38;;;;;;;34.70;10.30;;;;;;;2.60;63.87;99702.50;105933;1279;107759;-69
2022/02/24 00:50:07;;;;;;;32.80;10.10;;;;;;;2.57;64.17;99701.89;105778;1279;99744;-69
2022/02/24 00:52:35;;;;;;;38.50;10.90;;;;;;;2.53;63.78;99704.63;105892;1279;99243;-72
2022/02/24 00:55:03;;;;;;;33.30;10.40;;;;;;;2.49;64.08;99702.46;105789;1281;110814;-69
2022/02/24 00:57:31;;;;;;;29.50;10.00;;;;;;;2.46;63.87;99706.05;105800;1281;99307;-68
2022/02/24 00:59:59;;;;;;;30.10;9.50;;;;;;;2.43;63.85;99706.33;105822;1279;107681;-67
2022/02/24 01:02:27;;;;;;;35.90;10.30;;;;;;;2.40;63.85;99703.77;105882;1279;99321;-69
2022/02/24 01:04:55;;;;;;;31.30;10.30;;;;;;;2.38;64.13;99701.92;105891;1279;96676;-69
2022/02/24 01:07:24;;;;;;;31.50;10.30;;;;;;;2.35;64.12;99701.99;105868;1279;113399;-68
2022/02/24 01:09:52;;;;;;;34.10;10.40;;;;;;;2.30;64.14;99697.58;105949;1279;99257;-67
2022/02/24 01:12:20;;;;;;;30.40;9.40;;;;;;;2.27;64.24;99694.70;105922;1279;108560;-69
2022/02/24 01:14:48;;;;;;;30.10;9.20;;;;;;;2.22;64.52;99693.60;105952;1279;96672;-69
2022/02/24 01:17:17;;;;;;;31.60;9.20;;;;;;;2.19;64.31;99688.08;105935;1279;99299;-66
2022/02/24 01:19:45;;;;;;;31.30;9.60;;;;;;;2.18;64.17;99681.65;105934;1279;115488;-69
2022/02/24 01:22:13;;;;;;;28.60;9.70;;;;;;;2.17;64.48;99682.71;105960;1279;99221;-67
2022/02/24 01:24:41;;;;;;;30.70;10.60;;;;;;;2.17;64.28;99682.90;105864;1281;108395;-71
2022/02/24 01:27:10;;;;;;;35.30;10.40;;;;;;;2.15;64.32;99682.95;105869;1281;99222;-70
2022/02/24 01:29:37;;;;;;;29.70;10.50;;;;;;;2.12;64.44;99682.15;105954;1279;99217;-69
2022/02/24 01:32:07;;;;;;;36.70;10.00;;;;;;;2.09;64.23;99682.40;105919;1279;113383;-69
2022/02/24 01:34:34;;;;;;;33.70;10.40;;;;;;;2.05;64.22;99681.47;105972;1279;99401;-69
2022/02/24 01:37:03;;;;;;;29.40;10.10;;;;;;;2.02;64.15;99686.09;105925;1279;108391;-69
2022/02/24 01:39:31;;;;;;;30.20;9.30;;;;;;;1.98;64.22;99687.61;105929;1279;99422;-70
2022/02/24 01:42:00;;;;;;;31.90;9.70;;;;;;;1.96;64.28;99687.52;105924;1279;99318;-69
2022/02/24 01:44:40;;;;;;;36.10;11.00;;;;;;;1.93;64.47;99687.91;105943;1279;113361;-68
2022/02/24 01:47:10;;;;;;;34.30;10.30;;;;;;;1.90;64.41;99688.00;105960;1279;98315;-68
2022/02/24 01:49:39;;;;;;;33.00;10.00;;;;;;;1.89;64.59;99688.89;105921;1279;107682;-65
2022/02/24 01:52:10;;;;;;;34.40;10.10;;;;;;;1.87;64.37;99691.06;105851;1279;96575;-67
2022/02/24 01:54:40;;;;;;;32.40;9.80;;;;;;;1.84;64.33;99691.65;105901;1279;99201;-68
2022/02/24 01:57:09;;;;;;;33.10;10.50;;;;;;;1.83;64.45;99690.80;105888;1279;112806;-70
2022/02/24 01:59:37;;;;;;;32.60;11.00;;;;;;;1.82;64.17;99692.42;105891;1279;97626;-70
2022/02/24 02:02:06;;;;;;;34.60;11.50;;;;;;;1.82;64.42;99688.05;105590;1281;108373;-69
2022/02/24 02:04:36;;;;;;;37.80;10.40;;;;;;;1.83;64.40;99686.98;105892;1279;98993;-67
2022/02/24 02:07:05;;;;;;;31.30;11.00;;;;;;;1.84;64.38;99687.46;105898;1279;99260;-68
2022/02/24 02:09:35;;;;;;;33.00;11.30;;;;;;;1.84;64.24;99690.09;105906;1279;113402;-68
2022/02/24 02:12:04;;;;;;;38.20;10.80;;;;;;;1.83;64.47;99693.27;105973;1279;99332;-69
2022/02/24 02:14:38;;;;;;;33.60;11.90;;;;;;;1.82;64.51;99697.33;105895;1279;108436;-69
2022/02/24 02:17:06;;;;;;;36.00;10.20;;;;;;;1.81;64.49;99702.06;105927;1279;99275;-70
2022/02/24 02:19:37;;;;;;;37.80;11.20;;;;;;;1.79;64.48;99705.08;105908;1279;99325;-70
2022/02/24 02:22:05;;;;;;;37.60;11.60;;;;;;;1.79;64.45;99702.63;105874;1279;113358;-70
2022/02/24 02:24:37;;;;;;;28.70;9.60;;;;;;;1.78;64.63;99708.79;105919;1279;99199;-70
2022/02/24 02:27:05;;;;;;;31.60;10.00;;;;;;;1.75;64.76;99711.12;105746;1281;108465;-70
2022/02/24 02:29:33;;;;;;;32.30;9.90;;;;;;;1.71;64.64;99709.84;105866;1279;99228;-68
2022/02/24 02:32:01;;;;;;;32.90;9.90;;;;;;;1.69;64.66;99712.86;105894;1279;99252;-70
2022/02/24 02:34:28;;;;;;;30.00;9.60;;;;;;;1.69;64.74;99715.32;105766;1281;112369;-70
2022/02/24 02:36:56;;;;;;;34.90;10.10;;;;;;;1.67;64.72;99718.69;105744;1281;99226;-70
2022/02/24 02:39:24;;;;;;;28.70;9.50;;;;;;;1.66;64.64;99725.17;105863;1279;108454;-69
2022/02/24 02:41:52;;;;;;;34.50;10.50;;;;;;;1.63;64.97;99734.70;105906;1279;99330;-68
2022/02/24 02:44:20;;;;;;;29.20;8.40;;;;;;;1.61;64.76;99735.98;105958;1279;97590;-69
2022/02/24 02:46:49;;;;;;;32.50;10.10;;;;;;;1.59;64.68;99740.23;105907;1279;113437;-69
2022/02/24 02:49:17;;;;;;;30.80;11.00;;;;;;;1.57;64.79;99740.09;105953;1279;96752;-70
2022/02/24 02:51:45;;;;;;;34.50;10.50;;;;;;;1.59;64.97;99743.90;105945;1279;108393;-69
2022/02/24 02:54:13;;;;;;;33.80;9.50;;;;;;;1.60;65.01;99741.94;105852;1279;97093;-70
2022/02/24 02:56:42;;;;;;;34.20;11.10;;;;;;;1.62;64.78;99745.56;105918;1279;99218;-69
2022/02/24 02:59:09;;;;;;;27.20;9.30;;;;;;;1.62;64.97;99745.55;105861;1279;113020;-70
2022/02/24 03:01:38;;;;;;;30.90;10.00;;;;;;;1.61;64.87;99747.33;105880;1279;96734;-68
2022/02/24 03:04:07;;;;;;;32.00;10.90;;;;;;;1.61;64.86;99752.23;105882;1279;108540;-69
2022/02/24 03:06:34;;;;;;;30.10;9.10;;;;;;;1.58;64.93;99751.95;105871;1279;99301;-69
2022/02/24 03:09:03;;;;;;;29.50;10.10;;;;;;;1.54;64.87;99755.38;105888;1279;99232;-69
2022/02/24 03:11:31;;;;;;;29.40;9.60;;;;;;;1.52;64.88;99760.31;105735;1280;112394;-70
2022/02/24 03:13:59;;;;;;;31.60;11.30;;;;;;;1.51;65.12;99761.57;105804;1279;97950;-69
2022/02/24 03:16:27;;;;;;;33.80;10.50;;;;;;;1.51;64.80;99762.78;105878;1279;108542;-66
2022/02/24 03:18:56;;;;;;;35.20;11.50;;;;;;;1.50;65.13;99764.02;105855;1279;99278;-69
2022/02/24 03:21:24;;;;;;;33.00;10.70;;;;;;;1.49;65.05;99765.79;105796;1281;99350;-69
2022/02/24 03:23:52;;;;;;;32.60;10.60;;;;;;;1.48;65.10;99761.98;105801;1281;113387;-69
2022/02/24 03:26:20;;;;;;;39.50;11.10;;;;;;;1.47;65.17;99766.55;105777;1281;99354;-69
2022/02/24 03:28:48;;;;;;;36.10;10.30;;;;;;;1.45;65.18;99767.45;105811;1279;110742;-70
2022/02/24 03:31:16;;;;;;;32.70;10.50;;;;;;;1.45;64.95;99766.95;105816;1279;99368;-68
2022/02/24 03:33:45;;;;;;;28.10;9.90;;;;;;;1.45;65.26;99768.17;105652;1280;99217;-68
2022/02/24 03:36:13;;;;;;;30.40;9.80;;;;;;;1.44;65.11;99768.01;105357;1279;527762;-69
2022/02/24 03:38:41;;;;;;;31.10;10.50;;;;;;;1.43;65.27;99769.43;105813;1279;99214;-70
2022/02/24 03:41:09;;;;;;;34.00;11.30;;;;;;;1.42;65.26;99769.12;105779;1279;108409;-71
2022/02/24 03:43:37;;;;;;;31.70;11.60;;;;;;;1.40;65.26;99772.84;105814;1279;96656;-71
2022/02/24 03:46:05;;;;;;;38.70;10.80;;;;;;;1.39;65.16;99779.15;105823;1279;99316;-70
2022/02/24 03:48:33;;;;;;;32.90;11.20;;;;;;;1.38;65.38;99776.40;105809;1279;113384;-68
2022/02/24 03:51:01;;;;;;;36.60;12.10;;;;;;;1.37;65.31;99779.91;105854;1279;99268;-66
2022/02/24 03:53:29;;;;;;;41.60;12.30;;;;;;;1.37;65.35;99778.33;105735;1281;108530;-66
2022/02/24 03:55:57;;;;;;;33.10;10.80;;;;;;;1.37;65.31;99777.81;105759;1279;99378;-68
2022/02/24 03:58:25;;;;;;;36.60;12.00;;;;;;;1.35;65.24;99778.54;105830;1279;96731;-68
2022/02/24 04:00:53;;;;;;;32.50;11.20;;;;;;;1.34;65.17;99781.02;105697;1281;112911;-68
2022/02/24 04:03:26;;;;;;;35.80;12.00;;;;;;;1.32;65.27;99782.46;105859;1279;99266;-69
2022/02/24 04:05:55;;;;;;;30.30;10.70;;;;;;;1.29;65.32;99780.79;105852;1281;106674;-67
2022/02/24 04:08:23;;;;;;;34.70;10.90;;;;;;;1.27;65.32;99784.32;105888;1279;99330;-68
2022/02/24 04:10:51;;;;;;;33.20;11.10;;;;;;;1.26;65.36;99780.66;105863;1281;99141;-68
2022/02/24 04:13:20;;;;;;;31.80;11.60;;;;;;;1.26;65.45;99782.23;105833;1281;113475;-71
2022/02/24 04:15:48;;;;;;;33.40;11.70;;;;;;;1.27;65.33;99781.70;105803;1279;97722;-67
2022/02/24 04:18:16;;;;;;;51.20;13.20;;;;;;;1.29;65.35;99782.36;105800;1281;108526;-68
2022/02/24 04:20:46;;;;;;;32.40;11.40;;;;;;;1.30;65.52;99781.27;105795;1280;99276;-68
2022/02/24 04:23:16;;;;;;;36.70;11.20;;;;;;;1.30;65.61;99774.11;105885;1279;99277;-68
2022/02/24 04:25:44;;;;;;;33.80;12.10;;;;;;;1.31;65.63;99774.27;105881;1280;113317;-69
2022/02/24 04:28:12;;;;;;;32.80;10.90;;;;;;;1.30;65.64;99771.30;105792;1279;100314;-68
2022/02/24 04:30:40;;;;;;;34.10;11.20;;;;;;;1.30;65.42;99769.58;105737;1279;108396;-69
2022/02/24 04:33:11;;;;;;;36.70;11.60;;;;;;;1.27;65.44;99767.86;105790;1279;96666;-69
2022/02/24 04:35:40;;;;;;;36.70;11.20;;;;;;;1.26;65.49;99771.40;105820;1281;99224;-69
2022/02/24 04:38:08;;;;;;;34.10;10.00;;;;;;;1.26;65.58;99773.16;105834;1279;113419;-66
2022/02/24 04:40:36;;;;;;;29.40;10.00;;;;;;;1.25;65.78;99775.63;105830;1279;99258;-69
2022/02/24 04:43:04;;;;;;;31.30;10.70;;;;;;;1.25;65.66;99779.13;105862;1279;107350;-69
2022/02/24 04:45:32;;;;;;;34.30;10.40;;;;;;;1.25;65.79;99779.32;105843;1279;99396;-69
2022/02/24 04:48:00;;;;;;;35.50;11.80;;;;;;;1.26;65.77;99781.19;105818;1279;99215;-70
2022/02/24 04:50:27;;;;;;;28.70;10.20;;;;;;;1.26;65.73;99782.95;105872;1279;113465;-67
2022/02/24 04:52:55;;;;;;;29.20;10.10;;;;;;;1.27;65.72;99785.71;105794;1279;98382;-70
2022/02/24 04:55:23;;;;;;;30.60;10.80;;;;;;;1.26;65.88;99784.51;105794;1281;107736;-70
2022/02/24 04:57:51;;;;;;;33.60;10.20;;;;;;;1.27;65.82;99784.48;105867;1279;96620;-69
2022/02/24 05:00:19;;;;;;;32.90;11.00;;;;;;;1.28;65.98;99781.50;105832;1279;99762;-68
2022/02/24 05:02:47;;;;;;;33.10;10.40;;;;;;;1.28;65.88;99783.60;105849;1279;113682;-68
2022/02/24 05:05:15;;;;;;;31.10;10.70;;;;;;;1.28;65.91;99783.05;105866;1279;99241;-70
2022/02/24 05:07:43;;;;;;;33.00;10.60;;;;;;;1.29;65.92;99782.35;105882;1279;107290;-68
2022/02/24 05:10:11;;;;;;;34.20;11.10;;;;;;;1.28;65.76;99786.04;105888;1279;97727;-68
2022/02/24 05:12:39;;;;;;;40.10;11.70;;;;;;;1.28;66.01;99787.80;105807;1279;99198;-69
2022/02/24 05:15:09;;;;;;;38.40;13.10;;;;;;;1.29;65.98;99793.70;105887;1279;113378;-68
2022/02/24 05:17:39;;;;;;;31.30;11.40;;;;;;;1.28;66.01;99793.73;105886;1279;99307;-70
2022/02/24 05:20:11;;;;;;;33.60;11.40;;;;;;;1.27;66.00;99795.14;105811;1279;108348;-68
2022/02/24 05:22:42;;;;;;;38.30;12.20;;;;;;;1.26;66.08;99795.34;105907;1279;96552;-70
2022/02/24 05:25:14;;;;;;;35.00;12.60;;;;;;;1.25;66.14;99791.55;105873;1279;99213;-69
2022/02/24 05:27:44;;;;;;;35.30;11.10;;;;;;;1.23;65.90;99792.45;105866;1279;112699;-68
2022/02/24 05:30:15;;;;;;;31.90;10.40;;;;;;;1.21;66.10;99794.07;105738;1280;99223;-70
2022/02/24 05:32:43;;;;;;;33.40;11.60;;;;;;;1.18;66.12;99794.82;105838;1279;108161;-69
2022/02/24 05:35:12;;;;;;;31.20;11.40;;;;;;;1.14;65.88;99797.20;105887;1279;96656;-68
2022/02/24 05:37:43;;;;;;;35.00;13.20;;;;;;;1.09;65.85;99806.04;105831;1279;99322;-69
2022/02/24 05:40:11;;;;;;;33.50;12.10;;;;;;;1.05;66.11;99803.33;105872;1279;113067;-69
2022/02/24 05:42:39;;;;;;;34.20;12.10;;;;;;;1.03;65.99;99807.38;105725;1280;99299;-73
2022/02/24 05:45:07;;;;;;;37.50;13.60;;;;;;;1.00;65.94;99806.21;105866;1279;107691;-73
2022/02/24 05:47:35;;;;;;;40.80;15.60;;;;;;;0.94;65.95;99799.71;105771;1281;98039;-74
2022/02/24 05:50:07;;;;;;;44.00;15.70;;;;;;;0.73;66.03;99800.85;105776;1279;99208;-72
2022/02/24 05:52:37;;;;;;;43.70;16.30;;;;;;;0.49;66.59;99800.97;105694;1280;112683;-74
2022/02/24 05:55:05;;;;;;;39.10;16.50;;;;;;;0.27;66.76;99804.88;105625;1279;99177;-73
2022/02/24 05:57:33;;;;;;;40.20;16.00;;;;;;;0.18;66.66;99803.48;105868;1279;107631;-74
2022/02/24 06:00:01;;;;;;;43.10;15.50;;;;;;;0.16;66.60;99802.65;105903;1279;99330;-74
2022/02/24 06:02:29;;;;;;;35.20;13.10;;;;;;;0.18;66.63;99803.66;105904;1279;97691;-74
2022/02/24 06:04:57;;;;;;;39.30;14.20;;;;;;;0.12;67.00;99804.64;105896;1279;113719;-74
2022/02/24 06:07:25;;;;;;;38.60;15.60;;;;;;;-0.03;67.20;99809.27;105897;1279;97166;-74
2022/02/24 06:09:53;;;;;;;42.90;15.70;;;;;;;-0.11;67.07;99807.30;105822;1279;107968;-73
2022/02/24 06:12:20;;;;;;;40.80;16.30;;;;;;;-0.07;67.29;99810.19;105888;1279;99253;-69
2022/02/24 06:14:52;;;;;;;41.00;15.00;;;;;;;-0.01;67.09;99813.22;105817;1279;99464;-73
2022/02/24 06:17:20;;;;;;;41.40;17.00;;;;;;;0.06;67.17;99817.46;105792;1279;110522;-72
2022/02/24 06:19:48;;;;;;;37.70;15.80;;;;;;;0.10;67.33;99817.23;105866;1279;99353;-73
2022/02/24 06:22:16;;;;;;;40.60;16.70;;;;;;;0.15;67.14;99820.29;105874;1279;107759;-73
2022/02/24 06:24:44;;;;;;;38.90;17.30;;;;;;;0.19;67.27;99823.01;105775;1279;99475;-75
2022/02/24 06:27:14;;;;;;;39.10;15.30;;;;;;;0.22;67.17;99823.80;105784;1279;99301;-73
2022/02/24 06:29:43;;;;;;;41.10;18.40;;;;;;;0.26;67.27;99820.61;105805;1279;112861;-72
2022/02/24 06:32:13;;;;;;;38.70;16.30;;;;;;;0.30;67.36;99820.52;105784;1280;96583;-73
2022/02/24 06:34:42;;;;;;;41.70;17.20;;;;;;;0.35;67.48;99820.09;105857;1280;107813;-72
2022/02/24 06:37:10;;;;;;;50.40;18.80;;;;;;;0.38;67.75;99820.20;105813;1279;96581;-73
2022/02/24 06:39:38;;;;;;;47.20;19.30;;;;;;;0.42;67.85;99818.21;105817;1279;99375;-73
2022/02/24 06:42:08;;;;;;;47.00;19.20;;;;;;;0.45;67.75;99819.38;105803;1279;112872;-73
2022/02/24 06:44:36;;;;;;;52.50;21.20;;;;;;;0.49;67.90;99820.35;105900;1279;96600;-73
2022/02/24 06:47:04;;;;;;;47.20;20.60;;;;;;;0.52;68.03;99825.19;105852;1279;107804;-73
2022/02/24 06:49:32;;;;;;;56.00;24.60;;;;;;;0.53;68.04;99826.20;105730;1280;99270;-73
2022/02/24 06:52:01;;;;;;;50.50;23.20;;;;;;;0.55;68.01;99823.89;105847;1280;99228;-70
2022/02/24 06:54:29;;;;;;;53.80;23.20;;;;;;;0.60;67.95;99824.84;105743;1281;112433;-73
2022/02/24 06:56:58;;;;;;;47.60;18.20;;;;;;;0.67;68.02;99827.50;105836;1279;99304;-73
2022/02/24 06:59:28;;;;;;;44.80;19.50;;;;;;;0.74;68.12;99827.52;105790;1281;107933;-72
2022/02/24 07:01:56;;;;;;;47.80;19.60;;;;;;;0.82;68.30;99825.80;105886;1279;99971;-74
2022/02/24 07:04:24;;;;;;;47.60;18.30;;;;;;;0.88;68.37;99822.19;105780;1279;96742;-73
2022/02/24 07:06:52;;;;;;;40.50;16.50;;;;;;;0.96;68.37;99821.17;105865;1279;112561;-73
2022/02/24 07:09:22;;;;;;;51.00;18.60;;;;;;;1.04;68.29;99818.72;105897;1279;99221;-72
2022/02/24 07:11:51;;;;;;;43.50;17.20;;;;;;;1.11;68.51;99818.05;105826;1279;107781;-73
2022/02/24 07:14:20;;;;;;;44.40;17.50;;;;;;;1.18;68.63;99811.42;105778;1281;99431;-71
2022/02/24 07:16:49;;;;;;;55.50;19.00;;;;;;;1.25;68.66;99813.36;105898;1279;99308;-69
2022/02/24 07:19:18;;;;;;;46.20;19.50;;;;;;;1.31;68.77;99813.04;105928;1279;113303;-70
2022/02/24 07:21:46;;;;;;;44.10;18.20;;;;;;;1.38;68.91;99814.30;105905;1279;99347;-70
2022/02/24 07:24:14;;;;;;;43.00;17.20;;;;;;;1.44;68.90;99815.90;105853;1279;109272;-69
2022/02/24 07:26:42;;;;;;;43.00;17.00;;;;;;;1.51;68.79;99815.40;105871;1279;99339;-69
2022/02/24 07:29:10;;;;;;;37.80;16.80;;;;;;;1.59;68.97;99812.09;105907;1279;99229;-69
2022/02/24 07:31:38;;;;;;;46.70;16.90;;;;;;;1.67;68.87;99813.29;105886;1279;113263;-69
2022/02/24 07:34:06;;;;;;;36.10;16.90;;;;;;;1.73;69.13;99809.11;105930;1279;99238;-70
2022/02/24 07:36:34;;;;;;;40.80;15.60;;;;;;;1.81;69.30;99811.04;105896;1279;107632;-71
2022/02/24 07:39:02;;;;;;;42.90;15.90;;;;;;;1.87;69.08;99807.88;105889;1280;96717;-70
2022/02/24 07:41:30;;;;;;;38.70;13.10;;;;;;;1.96;69.26;99807.68;105917;1279;99235;-71
2022/02/24 07:43:58;;;;;;;43.20;16.30;;;;;;;2.02;69.13;99805.94;105893;1279;113322;-68
2022/02/24 07:46:27;;;;;;;37.70;14.60;;;;;;;2.09;69.50;99807.67;105889;1279;99351;-69
2022/02/24 07:48:55;;;;;;;41.90;14.50;;;;;;;2.17;69.02;99811.33;105886;1279;108795;-68
2022/02/24 07:51:23;;;;;;;38.70;14.70;;;;;;;2.25;69.32;99801.86;105947;1280;99330;-68
2022/02/24 07:53:52;;;;;;;38.20;14.30;;;;;;;2.33;69.49;99798.33;105893;1279;99124;-69
2022/02/24 07:56:20;;;;;;;45.00;15.10;;;;;;;2.40;69.39;99795.67;105904;1279;112685;-68
2022/02/24 07:58:49;;;;;;;34.30;13.20;;;;;;;2.49;69.47;99798.05;105923;1279;99332;-68
2022/02/24 08:01:23;;;;;;;35.50;12.10;;;;;;;2.58;69.17;99796.56;105860;1279;108369;-67
2022/02/24 08:03:52;;;;;;;40.90;13.80;;;;;;;2.67;69.28;99796.14;105932;1280;99300;-70
2022/02/24 08:06:21;;;;;;;43.10;14.50;;;;;;;2.74;69.19;99789.83;105911;1279;99128;-68
2022/02/24 08:08:49;;;;;;;35.70;13.70;;;;;;;2.79;69.27;99786.87;105889;1280;113417;-68
2022/02/24 08:11:17;;;;;;;35.50;13.30;;;;;;;2.89;69.10;99786.40;105889;1280;97940;-70
2022/02/24 08:13:45;;;;;;;40.10;12.80;;;;;;;2.97;69.47;99785.12;105868;1279;108065;-67
2022/02/24 08:16:12;;;;;;;34.50;13.60;;;;;;;3.03;68.78;99784.25;105914;1279;99836;-67
2022/02/24 08:18:40;;;;;;;39.80;13.10;;;;;;;3.11;69.12;99780.14;105914;1279;99927;-67
2022/02/24 08:21:09;;;;;;;37.90;12.00;;;;;;;3.20;69.39;99776.20;105923;1279;113389;-69
2022/02/24 08:23:37;;;;;;;33.90;12.10;;;;;;;3.30;69.20;99773.27;105920;1279;99843;-69
2022/02/24 08:26:06;;;;;;;36.10;11.50;;;;;;;3.38;69.29;99767.04;105887;1279;108284;-70
2022/02/24 08:28:34;;;;;;;30.50;12.00;;;;;;;3.47;69.33;99765.70;105912;1279;99262;-69
2022/02/24 08:31:02;;;;;;;31.50;11.60;;;;;;;3.55;69.07;99755.08;105939;1279;99240;-68
2022/02/24 08:33:30;;;;;;;38.00;11.90;;;;;;;3.64;69.30;99754.98;105884;1279;113248;-68
2022/02/24 08:35:59;;;;;;;32.10;11.10;;;;;;;3.74;69.13;99751.67;105882;1279;99333;-77
2022/02/24 08:38:27;;;;;;;32.00;11.20;;;;;;;3.83;69.12;99741.90;105862;1279;107536;-80
2022/02/24 08:41:15;;;;;;;34.40;11.20;;;;;;;3.96;69.22;99740.95;105840;1279;99432;-71
2022/02/24 08:43:43;;;;;;;36.80;10.90;;;;;;;4.08;69.09;99740.19;105824;1279;96685;-71
2022/02/24 08:46:11;;;;;;;30.40;9.70;;;;;;;4.20;69.19;99740.99;105801;1281;115456;-69
2022/02/24 08:48:40;;;;;;;31.80;9.80;;;;;;;4.31;69.29;99740.95;105852;1279;99325;-69
2022/02/24 08:51:08;;;;;;;31.10;8.80;;;;;;;4.42;69.24;99733.70;105857;1280;108437;-68
2022/02/24 08:53:36;;;;;;;28.10;7.90;;;;;;;4.55;69.35;99731.11;105912;1279;99265;-68
2022/02/24 08:56:04;;;;;;;29.40;9.00;;;;;;;4.66;69.20;99729.12;105914;1279;96730;-68
2022/02/24 08:58:32;;;;;;;27.40;8.30;;;;;;;4.78;69.14;99726.76;105954;1279;112664;-68
2022/02/24 09:01:00;;;;;;;27.60;8.90;;;;;;;5.02;69.18;99720.89;105913;1279;99470;-69
2022/02/24 09:03:30;;;;;;;31.00;10.20;;;;;;;5.36;69.17;99725.03;105961;1279;108368;-69
2022/02/24 09:05:59;;;;;;;25.50;8.30;;;;;;;5.69;69.01;99717.15;105877;1279;99255;-69
2022/02/24 09:08:30;;;;;;;25.40;7.70;;;;;;;6.04;69.25;99717.98;105783;1279;99222;-68
2022/02/24 09:11:00;;;;;;;23.90;7.10;;;;;;;6.44;69.12;99713.40;105834;1279;113346;-69
2022/02/24 09:13:27;;;;;;;23.90;7.20;;;;;;;6.76;68.99;99708.44;105763;1279;99284;-68
2022/02/24 09:15:55;;;;;;;28.30;8.20;;;;;;;7.07;68.72;99703.27;105880;1279;108340;-70
2022/02/24 09:18:26;;;;;;;26.30;7.90;;;;;;;7.38;68.67;99699.64;105865;1279;99350;-68
2022/02/24 09:20:56;;;;;;;22.10;6.70;;;;;;;7.74;68.97;99689.41;105792;1281;99340;-67
2022/02/24 09:23:24;;;;;;;18.30;5.20;;;;;;;8.09;68.87;99688.83;105865;1279;114180;-68
2022/02/24 09:25:54;;;;;;;24.30;6.10;;;;;;;8.48;68.85;99685.20;105885;1279;99087;-67
2022/02/24 09:28:23;;;;;;;27.50;6.80;;;;;;;8.87;68.41;99679.05;105829;1279;108349;-67
2022/02/24 09:30:54;;;;;;;22.30;7.00;;;;;;;9.14;68.45;99675.58;105887;1279;100042;-68
2022/02/24 09:33:22;;;;;;;21.80;6.70;;;;;;;9.39;68.41;99674.70;105961;1279;99227;-68
2022/02/24 09:35:51;;;;;;;23.20;7.00;;;;;;;9.59;67.82;99670.73;105912;1279;113404;-67
2022/02/24 09:38:25;;;;;;;27.40;8.00;;;;;;;9.73;66.90;99666.55;105886;1279;96566;-67
2022/02/24 09:40:56;;;;;;;24.10;7.00;;;;;;;9.91;65.93;99669.02;105733;1279;108353;-68
2022/02/24 09:43:36;;;;;;;24.20;6.70;;;;;;;10.01;65.02;99664.67;105849;1280;99339;-67
2022/02/24 09:46:09;;;;;;;24.10;6.40;;;;;;;10.24;65.82;99659.02;105843;1280;99231;-69
2022/02/24 09:48:45;;;;;;;21.00;5.20;;;;;;;10.83;66.50;99651.83;105710;1280;112942;-68
2022/02/24 09:51:17;;;;;;;17.00;4.30;;;;;;;11.26;65.12;99651.00;105874;1279;99258;-68
2022/02/24 09:53:49;;;;;;;24.30;5.20;;;;;;;11.26;64.70;99646.07;105779;1279;107193;-68
2022/02/24 09:56:29;;;;;;;18.40;4.40;;;;;;;11.21;64.52;99640.33;105815;1279;96968;-69
2022/02/24 09:59:02;;;;;;;15.50;4.10;;;;;;;11.09;64.43;99633.64;105794;1281;96556;-69
2022/02/24 10:01:33;;;;;;;16.80;3.90;;;;;;;11.05;63.39;99628.42;105770;1281;113383;-69
2022/02/24 10:04:03;;;;;;;15.90;3.70;;;;;;;10.87;63.03;99625.67;105760;1279;97657;-67
2022/02/24 10:06:37;;;;;;;18.80;4.00;;;;;;;10.79;63.41;99621.59;105674;1281;108922;-68
2022/02/24 10:09:10;;;;;;;12.60;3.90;;;;;;;10.68;62.49;99615.70;105759;1280;99261;-68
2022/02/24 10:11:39;;;;;;;17.30;3.60;;;;;;;10.67;63.41;99615.25;105704;1279;99307;-68
2022/02/24 10:14:21;;;;;;;18.80;4.10;;;;;;;10.71;61.53;99618.74;105702;1280;112918;-68
2022/02/24 10:17:04;;;;;;;15.90;3.60;;;;;;;10.61;61.95;99612.61;105765;1279;99357;-69
2022/02/24 10:19:39;;;;;;;15.60;3.70;;;;;;;10.44;59.43;99608.38;105796;1280;107785;-68
2022/02/24 10:22:18;;;;;;;20.40;4.10;;;;;;;10.21;60.43;99601.09;105769;1281;97625;-67
2022/02/24 10:25:01;;;;;;;19.30;4.40;;;;;;;10.20;60.89;99595.27;105821;1281;100637;-68
2022/02/24 10:27:33;;;;;;;19.20;4.10;;;;;;;10.21;59.16;99594.32;105766;1280;113377;-67
2022/02/24 10:30:17;;;;;;;19.90;4.20;;;;;;;10.10;59.12;99587.54;105857;1279;99259;-69
2022/02/24 10:33:13;;;;;;;20.50;4.00;;;;;;;9.98;58.36;99581.96;105809;1279;108451;-67
2022/02/24 10:35:40;;;;;;;13.60;4.30;;;;;;;9.89;58.86;99566.02;105792;1279;96785;-65
2022/02/24 10:38:16;;;;;;;19.40;4.10;;;;;;;9.98;59.48;99561.94;105749;1281;96584;-71
2022/02/24 10:40:49;;;;;;;21.40;4.40;;;;;;;10.12;59.55;99556.76;105823;1280;112994;-69
2022/02/24 10:43:39;;;;;;;15.10;3.90;;;;;;;10.31;59.26;99550.80;105975;1279;96644;-67
2022/02/24 10:46:17;;;;;;;15.50;3.60;;;;;;;10.38;57.25;99550.73;105815;1281;107597;-69
2022/02/24 10:48:56;;;;;;;17.60;5.20;;;;;;;10.25;57.52;99543.56;106097;1281;99203;-68
2022/02/24 10:51:30;;;;;;;14.90;4.60;;;;;;;10.28;57.41;99538.22;106788;1280;98569;-69
2022/02/24 10:53:59;;;;;;;20.10;4.60;;;;;;;10.28;56.49;99538.96;106640;1279;112867;-69
2022/02/24 10:56:29;;;;;;;19.90;4.80;;;;;;;10.25;57.20;99530.63;107381;1279;97294;-69
2022/02/24 10:58:58;;;;;;;18.80;4.60;;;;;;;10.29;55.78;99525.10;105942;1279;107880;-69
2022/02/24 11:01:29;;;;;;;17.70;4.30;;;;;;;10.16;55.75;99519.67;106234;1281;97871;-68
2022/02/24 11:04:01;;;;;;;17.10;4.40;;;;;;;10.17;55.34;99512.55;105789;1279;99255;-69
2022/02/24 11:06:36;;;;;;;16.00;3.70;;;;;;;10.21;56.21;99510.15;107409;1281;113532;-68
2022/02/24 11:09:05;;;;;;;;;;;;;;;10.37;56.55;99502.23;105761;1281;97952;-69
2022/02/24 11:11:37;;;;;;;15.80;4.20;;;;;;;10.51;56.71;99500.97;106726;1281;107604;-69
2022/02/24 11:14:10;;;;;;;15.10;4.00;;;;;;;10.68;56.67;99498.64;105826;1280;96656;-70
2022/02/24 11:16:40;;;;;;;14.40;4.20;;;;;;;10.77;55.75;99492.05;105866;1279;99229;-68
2022/02/24 11:19:08;;;;;;;16.90;4.60;;;;;;;10.80;55.80;99490.06;105846;1281;113294;-67
2022/02/24 11:21:40;;;;;;;18.30;4.20;;;;;;;10.84;55.61;99481.61;105838;1280;99089;-67
2022/02/24 11:24:08;;;;;;;16.40;3.90;;;;;;;10.84;54.87;99482.83;105799;1281;107589;-69
2022/02/24 11:27:03;;;;;;;17.40;4.20;;;;;;;10.77;54.71;99479.06;105751;1279;99261;-70